createdAt,value
2022-12-16T00:02:11.926Z,29.83
2022-12-16T00:04:41.973Z,29.83
2022-12-16T00:07:11.972Z,29.82
2022-12-16T00:09:42.474Z,29.78
2022-12-16T00:12:12.628Z,29.76
2022-12-16T00:14:49.057Z,29.76
2022-12-16T00:17:20.180Z,29.75
2022-12-16T00:19:50.326Z,29.75
2022-12-16T00:22:20.675Z,29.74
2022-12-16T00:24:56.197Z,29.76
2022-12-16T00:27:42.856Z,29.76
2022-12-16T00:30:16.726Z,29.76
2022-12-16T00:32:51.511Z,29.76
2022-12-16T00:35:21.810Z,29.77
2022-12-16T00:37:52.648Z,30.01
2022-12-16T00:40:24.162Z,30.01
2022-12-16T00:42:54.626Z,29.77
2022-12-16T00:45:26.726Z,29.73
2022-12-16T00:48:03.360Z,29.73
2022-12-16T00:50:39.606Z,29.73
2022-12-16T00:53:16.406Z,29.69
2022-12-16T00:55:47.725Z,29.73
2022-12-16T00:58:19.280Z,29.92
2022-12-16T01:00:52.619Z,29.90
2022-12-16T01:03:55.618Z,29.92
2022-12-16T01:06:21.732Z,29.89
2022-12-16T01:09:03.931Z,29.93
2022-12-16T01:11:42.059Z,29.91
2022-12-16T01:14:10.342Z,29.91
2022-12-16T01:16:40.263Z,29.92
2022-12-16T01:19:15.909Z,29.88
2022-12-16T01:21:44.455Z,29.84
2022-12-16T01:24:15.868Z,29.86
2022-12-16T01:26:47.012Z,29.80
2022-12-16T01:29:17.718Z,29.79
2022-12-16T01:31:52.494Z,29.76
2022-12-16T01:34:26.717Z,29.82
2022-12-16T01:37:05.611Z,29.79
2022-12-16T01:39:36.214Z,29.74
2022-12-16T01:42:07.448Z,29.75
2022-12-16T01:44:41.039Z,29.72
2022-12-16T01:47:14.501Z,29.69
2022-12-16T01:49:55.630Z,29.68
2022-12-16T01:52:37.123Z,29.67
2022-12-16T01:55:09.524Z,29.64
2022-12-16T01:57:44.261Z,29.65
2022-12-16T02:00:15.260Z,29.67
2022-12-16T02:02:46.252Z,29.66
2022-12-16T02:05:22.918Z,29.60
2022-12-16T02:08:18.554Z,29.58
2022-12-16T02:10:55.129Z,29.63
2022-12-16T02:14:02.338Z,29.57
2022-12-16T02:17:06.466Z,29.60
2022-12-16T02:19:55.000Z,29.61
2022-12-16T02:22:49.825Z,29.59
2022-12-16T02:25:43.606Z,29.53
2022-12-16T02:28:21.145Z,29.53
2022-12-16T02:31:07.759Z,29.55
2022-12-16T02:33:57.119Z,29.54
2022-12-16T02:36:51.679Z,29.55
2022-12-16T02:39:30.873Z,29.53
2022-12-16T02:42:20.072Z,29.52
2022-12-16T02:45:24.405Z,29.41
2022-12-16T02:47:56.463Z,29.39
2022-12-16T02:50:32.513Z,29.49
2022-12-16T02:53:03.675Z,29.51
2022-12-16T02:55:56.464Z,29.48
2022-12-16T02:58:29.474Z,29.46
2022-12-16T03:01:19.042Z,29.44
2022-12-16T03:03:52.110Z,29.44
2022-12-16T03:06:23.274Z,29.40
2022-12-16T03:08:55.811Z,29.39
2022-12-16T03:11:27.518Z,29.38
2022-12-16T03:13:58.212Z,29.37
2022-12-16T03:16:31.155Z,29.39
2022-12-16T03:19:04.259Z,29.36
2022-12-16T03:21:52.401Z,29.35
2022-12-16T03:24:24.153Z,29.37
2022-12-16T03:27:05.729Z,29.40
2022-12-16T03:29:56.495Z,29.37
2022-12-16T03:32:44.027Z,29.38
2022-12-16T03:35:23.634Z,29.39
2022-12-16T03:37:56.070Z,29.39
2022-12-16T03:40:26.907Z,29.49
2022-12-16T03:42:59.252Z,29.61
2022-12-16T03:45:32.728Z,29.64
2022-12-16T03:48:05.987Z,29.66
2022-12-16T03:50:41.632Z,29.65
2022-12-16T03:53:14.781Z,29.64
2022-12-16T03:55:45.364Z,29.67
2022-12-16T03:58:20.402Z,29.67
2022-12-16T04:00:51.023Z,29.65
2022-12-16T04:03:23.140Z,29.63
2022-12-16T04:06:19.100Z,29.65
2022-12-16T04:08:49.680Z,29.60
2022-12-16T04:11:38.843Z,29.58
2022-12-16T04:14:29.841Z,29.59
2022-12-16T04:17:21.548Z,29.56
2022-12-16T04:20:10.836Z,29.54
2022-12-16T04:23:02.009Z,29.51
2022-12-16T04:25:42.785Z,29.51
2022-12-16T04:28:13.271Z,29.47
2022-12-16T04:30:44.020Z,29.47
2022-12-16T04:33:32.488Z,29.53
2022-12-16T04:36:20.526Z,29.53
2022-12-16T04:39:10.754Z,29.46
2022-12-16T04:42:01.374Z,29.43
2022-12-16T04:44:49.773Z,29.41
2022-12-16T04:47:37.499Z,29.39
2022-12-16T04:50:26.927Z,29.36
2022-12-16T04:53:20.244Z,29.33
2022-12-16T04:56:07.800Z,29.34
2022-12-16T04:58:55.883Z,29.31
2022-12-16T05:01:44.013Z,29.28
2022-12-16T05:04:33.184Z,29.29
2022-12-16T05:07:22.029Z,29.25
2022-12-16T05:10:10.319Z,29.22
2022-12-16T05:12:58.095Z,29.23
2022-12-16T05:15:47.122Z,29.23
2022-12-16T05:18:37.663Z,29.18
2022-12-16T05:21:27.545Z,29.18
2022-12-16T05:24:15.511Z,29.15
2022-12-16T05:27:06.158Z,29.16
2022-12-16T05:29:55.044Z,29.13
2022-12-16T05:32:43.403Z,29.14
2022-12-16T05:35:31.847Z,29.11
2022-12-16T05:38:21.204Z,29.13
2022-12-16T05:41:10.417Z,29.13
2022-12-16T05:43:59.152Z,29.08
2022-12-16T05:46:47.309Z,29.08
2022-12-16T05:49:42.380Z,29.07
2022-12-16T05:52:30.679Z,29.05
2022-12-16T05:55:18.929Z,29.06
2022-12-16T05:58:10.548Z,29.05
2022-12-16T06:00:53.945Z,29.04
2022-12-16T06:03:42.721Z,29.03
2022-12-16T06:06:44.379Z,29.03
2022-12-16T06:09:38.258Z,29.03
2022-12-16T06:12:30.042Z,28.98
2022-12-16T06:15:22.165Z,28.95
2022-12-16T06:18:10.370Z,28.98
2022-12-16T06:20:59.960Z,28.95
2022-12-16T06:23:49.324Z,28.95
2022-12-16T06:26:37.547Z,28.94
2022-12-16T06:29:27.720Z,28.90
2022-12-16T06:32:21.147Z,28.90
2022-12-16T06:35:09.183Z,28.88
2022-12-16T06:37:57.678Z,28.88
2022-12-16T06:43:50.517Z,28.85
2022-12-16T06:46:38.432Z,28.81
2022-12-16T06:49:26.221Z,28.78
2022-12-16T06:52:13.800Z,28.82
2022-12-16T06:55:04.588Z,28.79
2022-12-16T06:57:54.140Z,28.80
2022-12-16T07:00:41.787Z,28.81
2022-12-16T07:03:35.397Z,28.79
2022-12-16T07:06:19.082Z,28.75
2022-12-16T07:09:07.105Z,28.74
2022-12-16T07:11:55.828Z,28.76
2022-12-16T07:14:43.763Z,28.75
2022-12-16T07:17:33.833Z,28.73
2022-12-16T07:20:30.481Z,28.71
2022-12-16T07:23:19.969Z,28.70
2022-12-16T07:26:07.553Z,28.70
2022-12-16T07:28:55.677Z,28.66
2022-12-16T07:31:43.937Z,28.68
2022-12-16T07:34:34.596Z,28.68
2022-12-16T07:37:20.770Z,28.65
2022-12-16T07:40:08.399Z,28.65
2022-12-16T07:42:56.577Z,28.65
2022-12-16T07:45:45.413Z,28.65
2022-12-16T07:48:33.047Z,28.63
2022-12-16T07:51:20.526Z,28.67
2022-12-16T07:54:08.172Z,28.63
2022-12-16T07:56:55.834Z,28.63
2022-12-16T07:59:36.347Z,28.63
2022-12-16T08:02:24.122Z,28.68
2022-12-16T08:05:11.979Z,28.68
2022-12-16T08:08:02.832Z,28.60
2022-12-16T08:10:50.366Z,28.60
2022-12-16T08:13:39.781Z,28.59
2022-12-16T08:16:33.119Z,28.60
2022-12-16T08:19:21.935Z,28.63
2022-12-16T08:22:09.545Z,28.61
2022-12-16T08:24:57.238Z,28.59
2022-12-16T08:27:45.210Z,28.62
2022-12-16T08:30:33.448Z,28.60
2022-12-16T08:33:22.714Z,28.60
2022-12-16T08:36:10.539Z,28.69
2022-12-16T08:38:58.299Z,28.77
2022-12-16T08:41:45.596Z,28.88
2022-12-16T08:44:33.581Z,28.98
2022-12-16T08:47:21.075Z,28.99
2022-12-16T08:50:09.086Z,29.03
2022-12-16T08:52:57.590Z,29.05
2022-12-16T08:55:45.269Z,29.07
2022-12-16T08:58:32.973Z,29.09
2022-12-16T09:01:21.298Z,29.18
2022-12-16T09:04:09.324Z,29.26
2022-12-16T09:06:57.823Z,29.25
2022-12-16T09:09:45.309Z,29.20
2022-12-16T09:12:34.477Z,29.20
2022-12-16T09:15:27.732Z,29.18
2022-12-16T09:18:15.884Z,29.17
2022-12-16T09:21:03.809Z,29.14
2022-12-16T09:23:51.423Z,29.13
2022-12-16T09:26:40.677Z,29.12
2022-12-16T09:29:28.383Z,29.10
2022-12-16T09:32:16.471Z,29.06
2022-12-16T09:35:07.361Z,29.02
2022-12-16T09:37:54.244Z,29.00
2022-12-16T09:40:43.316Z,29.00
2022-12-16T09:43:54.439Z,28.96
2022-12-16T09:46:45.351Z,28.93
2022-12-16T09:49:44.514Z,28.86
2022-12-16T09:52:38.891Z,28.95
2022-12-16T09:55:30.376Z,29.05
2022-12-16T09:58:17.818Z,29.08
2022-12-16T10:01:05.149Z,29.15
2022-12-16T10:03:58.417Z,29.10
2022-12-16T10:06:57.394Z,29.07
2022-12-16T10:09:47.678Z,29.04
2022-12-16T10:12:40.759Z,29.03
2022-12-16T10:15:50.548Z,28.99
2022-12-16T10:18:41.799Z,28.96
2022-12-16T10:21:31.019Z,28.90
2022-12-16T10:24:27.662Z,28.88
2022-12-16T10:27:21.297Z,28.88
2022-12-16T10:33:12.249Z,29.01
2022-12-16T10:36:11.735Z,29.03
2022-12-16T10:39:12.184Z,29.05
2022-12-16T10:42:00.725Z,29.06
2022-12-16T10:45:11.299Z,29.09
2022-12-16T10:47:59.536Z,29.09
2022-12-16T10:50:47.183Z,29.15
2022-12-16T10:53:36.770Z,29.24
2022-12-16T10:56:47.863Z,29.22
2022-12-16T10:59:35.784Z,29.16
2022-12-16T11:02:37.892Z,29.11
2022-12-16T11:05:54.596Z,29.10
2022-12-16T11:08:50.549Z,29.09
2022-12-16T11:11:42.758Z,29.08
2022-12-16T11:15:12.660Z,29.03
2022-12-16T11:17:42.325Z,29.05
2022-12-16T11:20:40.865Z,29.08
2022-12-16T11:23:39.837Z,29.08
2022-12-16T11:26:36.353Z,29.06
2022-12-16T11:29:36.820Z,29.01
2022-12-16T11:32:39.600Z,29.05
2022-12-16T11:35:35.573Z,29.07
2022-12-16T11:38:26.567Z,29.08
2022-12-16T11:41:15.179Z,29.10
2022-12-16T11:44:02.899Z,29.07
2022-12-16T11:46:50.501Z,29.11
2022-12-16T11:49:48.861Z,29.11
2022-12-16T11:52:40.252Z,29.12
2022-12-16T11:58:46.565Z,29.14
2022-12-16T12:01:47.349Z,29.11
2022-12-16T12:04:35.202Z,29.08
2022-12-16T12:07:48.283Z,29.10
2022-12-16T12:10:48.208Z,29.10
2022-12-16T12:13:56.546Z,29.09
2022-12-16T12:16:52.883Z,29.06
2022-12-16T12:19:44.347Z,29.03
2022-12-16T12:22:40.506Z,29.02
2022-12-16T12:25:40.484Z,28.99
2022-12-16T12:28:20.921Z,28.95
2022-12-16T12:31:17.467Z,28.91
2022-12-16T12:34:10.503Z,28.90
2022-12-16T12:37:00.616Z,28.83
2022-12-16T12:39:59.663Z,28.81
2022-12-16T12:43:01.447Z,28.78
2022-12-16T12:46:16.534Z,28.81
2022-12-16T12:49:40.335Z,28.79
2022-12-16T12:52:30.859Z,28.78
2022-12-16T12:55:30.529Z,28.72
2022-12-16T12:58:18.476Z,28.72
2022-12-16T13:01:04.743Z,28.71
2022-12-16T13:04:04.227Z,28.68
2022-12-16T13:06:57.620Z,28.62
2022-12-16T13:09:52.822Z,28.58
2022-12-16T13:12:53.597Z,28.54
2022-12-16T13:15:55.169Z,28.54
2022-12-16T13:18:46.741Z,28.51
2022-12-16T13:21:59.968Z,28.51
2022-12-16T13:24:53.214Z,28.47
2022-12-16T13:27:42.860Z,28.47
2022-12-16T13:30:34.208Z,28.43
2022-12-16T13:33:42.698Z,28.36
2022-12-16T13:36:31.265Z,28.35
2022-12-16T13:39:20.574Z,28.34
2022-12-16T13:42:05.195Z,28.30
2022-12-16T13:45:07.482Z,28.29
2022-12-16T13:48:04.188Z,28.29
2022-12-16T13:51:06.591Z,28.22
2022-12-16T13:54:09.218Z,28.19
2022-12-16T13:57:00.335Z,28.18
2022-12-16T13:59:49.334Z,28.16
2022-12-16T14:02:53.540Z,28.12
2022-12-16T14:05:46.397Z,28.05
2022-12-16T14:08:38.708Z,27.95
2022-12-16T14:11:36.172Z,27.92
2022-12-16T14:14:33.008Z,27.92
2022-12-16T14:17:21.798Z,27.95
2022-12-16T14:20:36.135Z,27.93
2022-12-16T14:23:55.879Z,27.93
2022-12-16T14:26:22.532Z,27.91
2022-12-16T14:29:10.269Z,27.90
2022-12-16T14:31:59.940Z,27.88
2022-12-16T14:35:03.543Z,27.82
2022-12-16T14:37:57.259Z,27.79
2022-12-16T14:40:52.216Z,27.78
2022-12-16T14:43:43.668Z,27.76
2022-12-16T14:46:48.986Z,27.74
2022-12-16T14:49:44.038Z,27.72
2022-12-16T14:52:45.376Z,27.66
2022-12-16T14:55:38.414Z,27.60
2022-12-16T14:58:36.410Z,27.60
2022-12-16T15:01:34.815Z,27.57
2022-12-16T15:04:25.844Z,27.58
2022-12-16T15:07:13.806Z,27.57
2022-12-16T15:10:04.733Z,27.54
2022-12-16T15:12:54.894Z,27.48
2022-12-16T15:16:03.784Z,27.48
2022-12-16T15:18:57.094Z,27.44
2022-12-16T15:21:44.528Z,27.41
2022-12-16T15:24:37.092Z,27.41
2022-12-16T15:27:43.045Z,27.38
2022-12-16T15:30:56.264Z,27.49
2022-12-16T15:33:44.895Z,27.51
2022-12-16T15:36:59.961Z,27.50
2022-12-16T15:39:39.944Z,27.52
2022-12-16T15:42:42.583Z,27.48
2022-12-16T15:45:42.012Z,27.51
2022-12-16T15:48:48.568Z,27.51
2022-12-16T15:51:41.796Z,27.49
2022-12-16T15:54:51.956Z,27.45
2022-12-16T15:57:47.935Z,27.44
2022-12-16T16:00:48.617Z,27.43
2022-12-16T16:03:39.881Z,27.38
2022-12-16T16:09:58.078Z,27.31
2022-12-16T16:12:50.510Z,27.32
2022-12-16T16:15:38.218Z,27.31
2022-12-16T16:18:29.017Z,27.30
2022-12-16T16:21:20.046Z,27.26
2022-12-16T16:24:07.820Z,27.12
2022-12-16T16:26:56.190Z,27.04
2022-12-16T16:29:48.496Z,27.05
2022-12-16T16:32:44.137Z,27.05
2022-12-16T16:35:30.594Z,26.99
2022-12-16T16:38:18.728Z,26.94
2022-12-16T16:41:06.395Z,26.77
2022-12-16T16:43:54.224Z,26.95
2022-12-16T16:46:49.717Z,27.00
2022-12-16T16:49:41.770Z,27.01
2022-12-16T16:52:34.510Z,27.03
2022-12-16T16:55:24.213Z,26.92
2022-12-16T16:58:14.648Z,26.93
2022-12-16T17:04:26.989Z,26.89
2022-12-16T17:07:16.906Z,26.85
2022-12-16T17:12:43.199Z,26.73
2022-12-16T17:15:37.443Z,26.74
2022-12-16T17:21:19.767Z,26.72
2022-12-16T17:24:18.279Z,26.75
2022-12-16T17:27:17.768Z,26.73
2022-12-16T17:30:10.604Z,26.74
2022-12-16T17:33:06.005Z,26.74
2022-12-16T17:35:53.781Z,26.77
2022-12-16T17:38:41.611Z,26.76
2022-12-16T17:41:46.988Z,26.77
2022-12-16T17:58:10.496Z,26.70
2022-12-16T18:00:58.886Z,26.58
2022-12-16T18:03:46.754Z,26.54
2022-12-16T18:06:34.737Z,26.53
2022-12-16T18:09:25.497Z,26.57
2022-12-16T18:12:13.110Z,26.58
2022-12-16T18:15:01.042Z,26.61
2022-12-16T18:17:49.277Z,26.60
2022-12-16T18:20:39.169Z,26.62
2022-12-16T18:23:31.976Z,26.64
2022-12-16T18:29:45.997Z,26.65
2022-12-16T18:32:34.770Z,26.63
2022-12-16T18:35:18.545Z,26.65
2022-12-16T18:38:06.793Z,26.65
2022-12-16T18:40:55.647Z,26.63
2022-12-16T18:43:43.126Z,26.70
2022-12-16T18:46:31.028Z,26.68
2022-12-16T18:49:18.726Z,26.77
2022-12-16T18:52:06.029Z,26.73
2022-12-16T18:54:54.126Z,26.75
2022-12-16T18:57:42.290Z,26.70
2022-12-16T19:00:35.691Z,26.68
2022-12-16T19:03:24.091Z,26.75
2022-12-16T19:06:14.861Z,26.78
2022-12-16T19:08:46.746Z,26.71
2022-12-16T19:11:34.745Z,26.68
2022-12-16T19:14:23.875Z,26.68
2022-12-16T19:17:11.180Z,26.70
2022-12-16T19:19:58.782Z,26.68
2022-12-16T19:22:48.994Z,26.69
2022-12-16T19:28:43.024Z,26.56
2022-12-16T19:34:36.919Z,26.53
2022-12-16T19:37:24.192Z,26.56
2022-12-16T19:40:11.729Z,26.56
2022-12-16T19:43:00.009Z,26.58
2022-12-16T19:45:47.400Z,26.54
2022-12-16T19:48:36.349Z,26.54
2022-12-16T19:51:25.007Z,26.57
2022-12-16T19:54:12.509Z,26.55
2022-12-16T19:57:00.541Z,26.60
2022-12-16T20:02:45.888Z,26.58
2022-12-16T20:05:24.394Z,26.64
2022-12-16T20:08:12.242Z,26.63
2022-12-16T20:11:03.791Z,26.62
2022-12-16T20:13:51.971Z,26.63
2022-12-16T20:16:39.963Z,26.63
2022-12-16T20:19:28.020Z,26.68
2022-12-16T20:22:17.125Z,26.67
2022-12-16T20:28:12.267Z,26.59
2022-12-16T20:31:06.742Z,26.64
2022-12-16T20:34:02.952Z,26.61
2022-12-16T20:36:46.760Z,26.68
2022-12-16T20:39:36.219Z,26.61
2022-12-16T20:42:23.854Z,26.53
2022-12-16T20:45:13.837Z,26.61
2022-12-16T20:48:02.605Z,26.63
2022-12-16T20:53:57.135Z,26.76
2022-12-16T20:56:46.090Z,26.81
2022-12-16T20:59:33.209Z,26.85
2022-12-16T21:02:24.395Z,26.86
2022-12-16T21:05:11.615Z,26.85
2022-12-16T21:07:59.589Z,26.86
2022-12-16T21:10:47.299Z,26.88
2022-12-16T21:13:35.793Z,26.93
2022-12-16T21:16:24.947Z,26.90
2022-12-16T21:19:12.566Z,26.87
2022-12-16T21:22:00.337Z,26.92
2022-12-16T21:24:48.098Z,26.93
2022-12-16T21:27:35.860Z,26.95
2022-12-16T21:30:26.672Z,26.96
2022-12-16T21:33:14.573Z,26.98
2022-12-16T21:36:02.590Z,26.96
2022-12-16T21:38:50.251Z,26.99
2022-12-16T21:41:37.899Z,27.02
2022-12-16T21:44:26.878Z,27.02
2022-12-16T21:47:15.011Z,27.03
2022-12-16T21:50:02.720Z,27.06
2022-12-16T21:52:50.109Z,27.10
2022-12-16T21:55:38.014Z,27.08
2022-12-16T21:58:30.786Z,27.11
2022-12-16T22:01:19.876Z,27.07
2022-12-16T22:04:06.841Z,27.05
2022-12-16T22:09:56.298Z,26.95
2022-12-16T22:12:44.288Z,26.90
2022-12-16T22:15:31.699Z,26.88
2022-12-16T22:18:19.357Z,26.86
2022-12-16T22:21:18.788Z,26.86
2022-12-16T22:24:06.062Z,26.84
2022-12-16T22:26:53.488Z,26.85
2022-12-16T22:29:41.467Z,26.84
2022-12-16T22:32:29.472Z,26.84
2022-12-16T22:35:17.135Z,26.86
2022-12-16T22:38:05.000Z,26.81
2022-12-16T22:40:52.560Z,26.81
2022-12-16T22:43:48.966Z,26.82
2022-12-16T22:46:36.666Z,26.82
2022-12-16T22:49:24.497Z,26.83
2022-12-16T22:52:13.165Z,26.82
2022-12-16T22:55:02.570Z,26.83
2022-12-16T22:57:54.385Z,26.84
2022-12-16T23:00:42.935Z,26.84
2022-12-16T23:03:36.797Z,26.83
2022-12-16T23:06:24.667Z,26.83
2022-12-16T23:09:12.176Z,26.84
2022-12-16T23:12:01.147Z,26.81
2022-12-16T23:14:48.439Z,26.81
2022-12-16T23:17:35.825Z,26.83
2022-12-16T23:20:23.854Z,26.82
2022-12-16T23:23:12.540Z,26.86
2022-12-16T23:26:00.232Z,26.87
2022-12-16T23:28:47.656Z,26.91
2022-12-16T23:31:35.375Z,26.80
2022-12-16T23:34:23.187Z,26.77
2022-12-16T23:37:10.899Z,26.80
2022-12-16T23:39:58.949Z,26.81
2022-12-16T23:42:46.735Z,26.77
2022-12-16T23:45:34.477Z,26.78
2022-12-16T23:48:30.902Z,26.78
2022-12-16T23:51:20.963Z,26.75
2022-12-16T23:54:12.601Z,26.74
2022-12-16T23:58:14.596Z,26.67
